Home > Products > Valid Products > MTR

000
SAUS45 KMSO 011653
MTRP69
METAR KP69 011652Z AUTO 35003KT 27/13 A3000 RMK AO1 SLP131 T02670133





000
SAUS45 KMSO 011554
MTRP69
METAR KP69 011552Z AUTO 00000KT 24/13 A3002 RMK AO1 SLP141 T02390133





000
SAUS45 KMSO 011454
MTRP69
METAR KP69 011452Z AUTO 00000KT 21/14 A3005 RMK AO1 SLP151 T02060139
50003





000
SAUS45 KMSO 011454
MTRP69
METAR KP69 011452Z AUTO 00000KT 21/14 A3005 RMK AO1 SLP151 T02060139
50003





000
SAUS45 KMSO 011354
MTRP69
METAR KP69 011352Z AUTO 00000KT 17/13 A3005 RMK AO1 SLP154 T01720133





000
SAUS45 KMSO 011254
MTRP69
METAR KP69 011252Z AUTO 31003KT 17/13 A3005 RMK AO1 SLP150 T01670133





000
SAUS45 KMSO 011254
MTRP69
METAR KP69 011252Z AUTO 31003KT 17/13 A3005 RMK AO1 SLP150 T01670133





000
SAUS45 KMSO 011154
MTRP69
METAR KP69 011152Z AUTO 34003KT 17/13 A3003 RMK AO1 SLP138 T01720133
10222 20172 53009





000
SAUS45 KMSO 011154
MTRP69
METAR KP69 011152Z AUTO 34003KT 17/13 A3003 RMK AO1 SLP138 T01720133
10222 20172 53009





000
SAUS45 KMSO 011053
MTRP69
METAR KP69 011052Z AUTO 34003KT 18/14 A3002 RMK AO1 SLP135 T01780139





000
SAUS45 KMSO 010953
MTRP69
METAR KP69 010952Z AUTO 32004KT 18/14 A3001 RMK AO1 SLP127 T01830139





000
SAUS45 KMSO 010854
MTRP69
METAR KP69 010852Z AUTO 34003KT 19/14 A3001 RMK AO1 SLP127 T01940144
51013





000
SAUS45 KMSO 010854
MTRP69
METAR KP69 010852Z AUTO 34003KT 19/14 A3001 RMK AO1 SLP127 T01940144
51013





000
SAUS45 KMSO 010753
MTRP69
METAR KP69 010752Z AUTO 36003KT 20/14 A2999 RMK AO1 SLP125 T02000144
404060189





000
SAUS45 KMSO 010654
MTRP69
METAR KP69 010652Z AUTO 34005KT 21/15 A2998 RMK AO1 SLP120 T02110150





000
SAUS45 KMSO 010654
MTRP69
METAR KP69 010652Z AUTO 34005KT 21/15 A2998 RMK AO1 SLP120 T02110150





000
SAUS45 KMSO 010554
MTRP69
METAR KP69 010552Z AUTO 34003KT 22/15 A2996 RMK AO1 SLP116 T02220150
10389 20222 51022





000
SAUS45 KMSO 010554
MTRP69
METAR KP69 010552Z AUTO 34003KT 22/15 A2996 RMK AO1 SLP116 T02220150
10389 20222 51022





000
SAUS45 KMSO 010453
MTRP69
METAR KP69 010452Z AUTO 00000KT 23/15 A2995 RMK AO1 SLP113 T02330150





000
SAUS45 KMSO 010354
MTRP69
METAR KP69 010352Z AUTO 36003KT 24/15 A2992 RMK AO1 SLP104 T02440150





000
SAUS45 KMSO 010254
MTRP69
METAR KP69 010252Z AUTO 35004KT 26/16 A2990 RMK AO1 SLP098 T02610156
53004





000
SAUS45 KMSO 010154
MTRP69
METAR KP69 010152Z AUTO 00000KT 29/15 A2988 RMK AO1 SLP091 T02940150





000
SAUS45 KMSO 010154
MTRP69
METAR KP69 010152Z AUTO 00000KT 29/15 A2988 RMK AO1 SLP091 T02940150





000
SAUS45 KMSO 010054
MTRP69
METAR KP69 010052Z AUTO VRB04KT 32/14 A2988 RMK AO1 SLP089 T03170139





000
SAUS45 KMSO 302353
MTRP69
METAR KP69 302352Z AUTO 00000KT 39/11 A2988 RMK AO1 SLP084 T03940111
10406 20322 56014





000
SAUS45 KMSO 302353
MTRP69
METAR KP69 302352Z AUTO 00000KT 39/11 A2988 RMK AO1 SLP084 T03940111
10406 20322 56014





000
SAUS45 KMSO 302254
MTRP69
METAR KP69 302252Z AUTO 18004KT 38/12 A2989 RMK AO1 SLP089 T03780117





000
SAUS45 KMSO 302154
MTRP69
METAR KP69 302152Z AUTO 00000KT 40/11 A2991 RMK AO1 SLP091 T04000106





000
SAUS45 KMSO 302054
MTRP69
METAR KP69 302052Z AUTO VRB03KT 38/14 A2992 RMK AO1 SLP099 T03780139
56012





000
SAUS45 KMSO 302054
MTRP69
METAR KP69 302052Z AUTO VRB03KT 38/14 A2992 RMK AO1 SLP099 T03780139
56012





000
SAUS45 KMSO 301954
MTRP69
METAR KP69 301952Z AUTO 18007KT 130V200 37/14 A2993 RMK AO1 SLP101
T03670139





000
SAUS45 KMSO 301854
MTRP69
METAR KP69 301852Z AUTO 34004KT 35/14 A2995 RMK AO1 SLP107 T03500139





000
SAUS45 KMSO 301854
MTRP69
METAR KP69 301852Z AUTO 34004KT 35/14 A2995 RMK AO1 SLP107 T03500139





000
SAUS45 KMSO 301753
MTRP69
METAR KP69 301752Z AUTO 00000KT 32/16 A2996 RMK AO1 SLP113 T03220161
10322 20189 58021





000
SAUS45 KMSO 301753
MTRP69
METAR KP69 301752Z AUTO 00000KT 32/16 A2996 RMK AO1 SLP113 T03220161
10322 20189 58021





000
SAUS45 KMSO 301653
MTRP69
METAR KP69 301652Z AUTO 00000KT 28/17 A2998 RMK AO1 SLP122 T02830172





000
SAUS45 KMSO 301553
MTRP69
METAR KP69 301552Z AUTO 35003KT 25/17 A3001 RMK AO1 SLP134 T02500172





000
SAUS45 KMSO 301453
MTRP69
METAR KP69 301452Z AUTO 00000KT 22/17 A3002 RMK AO1 SLP141 T02220172
50004





000
SAUS45 KMSO 301453
MTRP69
METAR KP69 301452Z AUTO 00000KT 22/17 A3002 RMK AO1 SLP141 T02220172
50004





000
SAUS45 KMSO 301353
MTRP69
METAR KP69 301352Z AUTO 00000KT 19/17 A3004 RMK AO1 SLP145 T01940172





000
SAUS45 KMSO 301253
MTRP69
METAR KP69 301252Z AUTO 35004KT 19/17 A3003 RMK AO1 SLP140 T01890167





000
SAUS45 KMSO 301253
MTRP69
METAR KP69 301252Z AUTO 35004KT 19/17 A3003 RMK AO1 SLP140 T01890167





000
SAUS45 KMSO 301153
MTRP69
METAR KP69 301152Z AUTO 34003KT 19/17 A3001 RMK AO1 SLP127 T01940167
10239 20194 51014





000
SAUS45 KMSO 301053
MTRP69
METAR KP69 301052Z AUTO VRB03KT 20/17 A3000 RMK AO1 SLP125 T02000172





000
SAUS45 KMSO 301053
MTRP69
METAR KP69 301052Z AUTO VRB03KT 20/17 A3000 RMK AO1 SLP125 T02000172





000
SAUS45 KMSO 300953
MTRP69
METAR KP69 300952Z AUTO 33003KT 21/18 A2998 RMK AO1 SLP120 T02060178





000
SAUS45 KMSO 300853
MTRP69
METAR KP69 300852Z AUTO 00000KT 21/18 A2997 RMK AO1 SLP115 T02110178
51015





000
SAUS45 KMSO 300853
MTRP69
METAR KP69 300852Z AUTO 00000KT 21/18 A2997 RMK AO1 SLP115 T02110178
51015





000
SAUS45 KMSO 300754
MTRP69
METAR KP69 300752Z AUTO 00000KT 22/18 A2996 RMK AO1 SLP116 T02220183
404060200





000
SAUS45 KMSO 300654
MTRP69
METAR KP69 300652Z AUTO 00000KT 23/18 A2994 RMK AO1 SLP111 T02280183





000
SAUS45 KMSO 300554
MTRP69
METAR KP69 300552Z AUTO 34003KT 24/18 A2992 RMK AO1 SLP107 T02390183
10406 20239 51022





000
SAUS45 KMSO 300454
MTRP69
METAR KP69 300452Z AUTO 34003KT 24/19 A2991 RMK AO1 SLP100 T02440189





000
SAUS45 KMSO 300353
MTRP69
METAR KP69 300352Z AUTO 35003KT 26/19 A2988 RMK AO1 SLP090 T02610189





000
SAUS45 KMSO 300254
MTRP69
METAR KP69 300252Z AUTO 00000KT 27/18 A2986 RMK AO1 SLP083 T02720183
53019





000
SAUS45 KMSO 300254
MTRP69
METAR KP69 300252Z AUTO 00000KT 27/18 A2986 RMK AO1 SLP083 T02720183
53019





000
SAUS45 KMSO 300154
MTRP69
METAR KP69 300152Z AUTO 00000KT 30/17 A2984 RMK AO1 SLP075 T03000167





000
SAUS45 KMSO 300054
MTRP69
METAR KP69 300052Z AUTO 00000KT 32/18 A2981 RMK AO1 SLP065 T03220178





000
SAUS45 KMSO 300054
MTRP69
METAR KP69 300052Z AUTO 00000KT 32/18 A2981 RMK AO1 SLP065 T03220178





000
SAUS45 KMSO 292354
MTRP69
METAR KP69 292352Z AUTO 00000KT 40/16 A2980 RMK AO1 SLP054 T04000161
10406 20256 56024





000
SAUS45 KMSO 292254
MTRP69
METAR KP69 292252Z AUTO 00000KT 36/18 A2981 RMK AO1 SLP062 T03610183





000
SAUS45 KMSO 292153
MTRP69
METAR KP69 292152Z AUTO 35004KT 37/16 A2984 RMK AO1 SLP070 T03670161





000
SAUS45 KMSO 292053
MTRP69
METAR KP69 292052Z AUTO 00000KT 37/17 A2987 RMK AO1 SLP082 T03670167
58036





000
SAUS45 KMSO 291953
MTRP69
METAR KP69 291952Z AUTO 19003KT 32/18 A2990 RMK AO1 SLP094 T03220178





000
SAUS45 KMSO 291853
MTRP69
METAR KP69 291852Z AUTO 00000KT 29/18 A2998 RMK AO1 SLP124 T02940178





000
SAUS45 KMSO 291754
MTRP69
METAR KP69 291752Z AUTO 00000KT 26/19 A2998 RMK AO1 SLP127 T02610189
10272 20200 53002





000
SAUS45 KMSO 291653
MTRP69
METAR KP69 291652Z AUTO 00000KT 27/17 A2996 RMK AO1 SLP117 T02670172





000
SAUS45 KMSO 291554
MTRP69
METAR KP69 291552Z AUTO 00000KT 25/16 A2996 RMK AO1 SLP118 T02500156





000
SAUS45 KMSO 291554
MTRP69
METAR KP69 291552Z AUTO 00000KT 25/16 A2996 RMK AO1 SLP118 T02500156





000
SAUS45 KMSO 291454
MTRP69
METAR KP69 291452Z AUTO 00000KT 22/17 A2998 RMK AO1 SLP124 T02220167
53003





000
SAUS45 KMSO 291354
MTRP69
METAR KP69 291352Z AUTO 21003KT 22/16 A2997 RMK AO1 PRESRR SLP120
T02170156





000
SAUS45 KMSO 291253
MTRP69
METAR KP69 291252Z AUTO 26003KT 21/16 A2993 RMK AO1 SLP105 T02110156





000
SAUS45 KMSO 291253
MTRP69
METAR KP69 291252Z AUTO 26003KT 21/16 A2993 RMK AO1 SLP105 T02110156





000
SAUS45 KMSO 291154
MTRP69
METAR KP69 291152Z AUTO 00000KT 21/16 A2997 RMK AO1 SLP114 T02060161
10233 20200 50029 $





000
SAUS45 KMSO 291154
MTRP69
METAR KP69 291152Z AUTO 00000KT 21/16 A2997 RMK AO1 SLP114 T02060161
10233 20200 50029 $





000
SAUS45 KMSO 291054
MTRP69
METAR KP69 291052Z AUTO 34003KT 21/16 A2997 RMK AO1 SLP112 T02060161
$





000
SAUS45 KMSO 291054
MTRP69
METAR KP69 291052Z AUTO 34003KT 21/16 A2997 RMK AO1 SLP112 T02060161
$





000
SAUS45 KMSO 290954
MTRP69
METAR KP69 290952Z AUTO 00000KT 21/16 A2991 RMK AO1 SLP090 T02060161
$





000
SAUS45 KMSO 290853
MTRP69
METAR KP69 290852Z AUTO 00000KT 21/16 A2988 RMK AO1 SLP080 T02110161
53010 $





000
SAUS45 KMSO 290754
MTRP69
METAR KP69 290752Z AUTO 36003KT 22/17 A2987 RMK AO1 SLP079 T02170167
404330167 $





000
SAUS45 KMSO 290754
MTRP69
METAR KP69 290752Z AUTO 36003KT 22/17 A2987 RMK AO1 SLP079 T02170167
404330167 $





000
SAUS45 KMSO 290654
MTRP69
METAR KP69 290652Z AUTO 00000KT 22/17 A2985 RMK AO1 SLP075 T02220172
$





000
SAUS45 KMSO 290554
MTRP69
METAR KP69 290552Z AUTO 01003KT 23/18 A2985 RMK AO1 SLP076 T02330178
10378 20233 51017 $





000
SAUS45 KMSO 290554
MTRP69
METAR KP69 290552Z AUTO 01003KT 23/18 A2985 RMK AO1 SLP076 T02330178
10378 20233 51017 $





000
SAUS45 KMSO 290454
MTRP69
METAR KP69 290452Z AUTO 32004KT 24/18 A2983 RMK AO1 SLP075 T02390178
$





000
SAUS45 KMSO 290454
MTRP69
METAR KP69 290452Z AUTO 32004KT 24/18 A2983 RMK AO1 SLP075 T02390178
$





000
SAUS45 KMSO 290354
MTRP69
METAR KP69 290352Z AUTO 36003KT 27/18 A2981 RMK AO1 SLP068 T02670183
$





000
SAUS45 KMSO 290354
MTRP69
METAR KP69 290352Z AUTO 36003KT 27/18 A2981 RMK AO1 SLP068 T02670183
$





000
SAUS45 KMSO 290254
MTRP69
METAR KP69 290252Z AUTO 35004KT 28/18 A2980 RMK AO1 SLP065 T02830183
53010 $





000
SAUS45 KMSO 290254
MTRP69
METAR KP69 290252Z AUTO 35004KT 28/18 A2980 RMK AO1 SLP065 T02830183
53010 $





000
SAUS45 KMSO 290153
MTRP69
METAR KP69 290152Z AUTO 00000KT 30/19 A2978 RMK AO1 SLP058 T03000189
$





000
SAUS45 KMSO 290053
MTRP69
METAR KP69 290052Z AUTO 00000KT 32/18 A2976 RMK AO1 SLP052 T03220178
$





000
SAUS45 KMSO 282354
MTRP69
METAR KP69 282352Z AUTO 00000KT 37/16 A2976 RMK AO1 SLP048 T03670161
10433 20306 56023 $





000
SAUS45 KMSO 282354
MTRP69
METAR KP69 282352Z AUTO 00000KT 37/16 A2976 RMK AO1 SLP048 T03670161
10433 20306 56023 $





000
SAUS45 KMSO 282254
MTRP69
METAR KP69 282252Z AUTO 00000KT 41/13 A2978 RMK AO1 SLP051 T04060133
$





000
SAUS45 KMSO 282154
MTRP69
METAR KP69 282152Z AUTO VRB03KT 41/13 A2981 RMK AO1 SLP058 T04110133
$





000
SAUS45 KMSO 282054
MTRP69
METAR KP69 282052Z AUTO 00000KT 41/11 A2984 RMK AO1 SLP067 T04060111
58037 $





000
SAUS45 KMSO 281953
MTRP69
METAR KP69 281952Z AUTO 34003KT 37/13 A2988 RMK AO1 SLP084 T03720128
$





000
SAUS45 KMSO 281854
MTRP69
METAR KP69 281852Z AUTO 35003KT 35/13 A2992 RMK AO1 SLP098 T03500128
$





000
SAUS45 KMSO 281854
MTRP69
METAR KP69 281852Z AUTO 35003KT 35/13 A2992 RMK AO1 SLP098 T03500128
$





000
SAUS45 KMSO 281754
MTRP69
METAR KP69 281752Z AUTO 00000KT 31/13 A2995 RMK AO1 SLP112 T03060133
10306 20167 58028 $





000
SAUS45 KMSO 281754
MTRP69
METAR KP69 281752Z AUTO 00000KT 31/13 A2995 RMK AO1 SLP112 T03060133
10306 20167 58028 $





    US Dept of Commerce
    National Oceanic and Atmospheric Administration
    National Weather Service
    1325 East West Highway
    Silver Spring, MD 20910
    Page Author: NWS Internet Services Team
Disclaimer
Information Quality
Credits
Glossary
Privacy Policy
Freedom of Information Act (FOIA)
About Us
Career Opportunities